• Join FlightAware (Why Join?)
  • Login
  • US Flag 
02:44PM EDT


 

Airport Tracker/Info


-or-


 

Live Flight TrackerFlight Track Log ✈ AFL150 ✈ 23-Dec-2013 ✈ UUEE / SVO - MUHA / HAV

Flight Track Log - Related Links

Times and Time Zones

All times are in EST time to prevent confusion due to time zone crossing. See the AFL150 flight status page for this flight to view local times or setup timezone preferences in your user account.

Time Position Orientation Groundspeed Altitude Reporting Facility
EST Latitude Longitude Course Direction KTS MPH feet Rate Location/Type
04:31AM 56.0571 37.2064 314° West  Level FlightAware Approximate
04:32AM 56.1386 37.0546 314° West  Level FlightAware Approximate
04:33AM 56.2200 36.9021 314° West  Level FlightAware Approximate
04:34AM 56.3012 36.7490 314° West  Level FlightAware Approximate
04:35AM 56.3822 36.5952 314° West  Level FlightAware Approximate
04:36AM 56.4630 36.4407 313° West  Level FlightAware Approximate
04:37AM 56.5436 36.2856 313° West  Level FlightAware Approximate
04:38AM 56.6240 36.1299 313° West  Level FlightAware Approximate
04:39AM 56.7042 35.9735 313° West  Level FlightAware Approximate
04:40AM 56.7842 35.8164 313° West  Level FlightAware Approximate
04:41AM 56.8640 35.6586 313° West  Level FlightAware Approximate
04:42AM 56.9436 35.5002 313° West  Level FlightAware Approximate
04:43AM 57.0231 35.3411 313° West  Level FlightAware Approximate
04:44AM 57.1023 35.1813 312° West  Level FlightAware Approximate
04:45AM 57.1813 35.0208 312° West  Level FlightAware Approximate
04:46AM 57.2601 34.8597 312° West  Level FlightAware Approximate
04:47AM 57.3387 34.6978 312° West  Level FlightAware Approximate
04:48AM 57.4171 34.5353 312° West  Level FlightAware Approximate
04:49AM 57.4906 34.3743 309° West  Level FlightAware Approximate
04:50AM 57.5647 34.2043 309° West  Level FlightAware Approximate
04:51AM 57.6386 34.0337 309° West  Level FlightAware Approximate
04:52AM 57.7123 33.8624 309° West  Level FlightAware Approximate
04:53AM 57.7858 33.6904 309° West  Level FlightAware Approximate
04:54AM 57.8591 33.5177 309° West  Level FlightAware Approximate
04:55AM 57.9320 33.3443 308° West  Level FlightAware Approximate
04:56AM 58.0048 33.1702 308° West  Level FlightAware Approximate
04:57AM 58.0773 32.9953 308° West  Level FlightAware Approximate
04:58AM 58.1496 32.8198 308° West  Level FlightAware Approximate
04:59AM 58.2216 32.6435 308° West  Level FlightAware Approximate
05:00AM 58.2934 32.4666 308° West  Level FlightAware Approximate
05:01AM 58.3650 32.2889 308° West  Level FlightAware Approximate
05:02AM 58.4363 32.1105 307° West  Level FlightAware Approximate
05:03AM 58.5074 31.9313 307° West  Level FlightAware Approximate
05:04AM 58.5782 31.7515 307° West  Level FlightAware Approximate
05:05AM 58.6487 31.5709 307° West  Level FlightAware Approximate
05:06AM 58.7190 31.3896 307° West  Level FlightAware Approximate
05:07AM 58.7891 31.2075 307° West  Level FlightAware Approximate
05:08AM 58.8589 31.0247 306° West  Level FlightAware Approximate
05:09AM 58.9284 30.8412 306° West  Level FlightAware Approximate
05:10AM 58.9977 30.6570 306° West  Level FlightAware Approximate
05:11AM 59.0667 30.4720 306° West  Level FlightAware Approximate
05:12AM 59.1354 30.2862 306° West  Level FlightAware Approximate
05:13AM 59.2039 30.0997 306° West  Level FlightAware Approximate
05:14AM 59.2721 29.9125 306° West  Level FlightAware Approximate
05:15AM 59.3400 29.7245 305° West  Level FlightAware Approximate
05:16AM 59.4077 29.5358 305° West  Level FlightAware Approximate
05:17AM 59.4751 29.3463 305° West  Level FlightAware Approximate
05:18AM 59.5422 29.1560 305° West  Level FlightAware Approximate
05:19AM 59.6090 28.9650 305° West  Level FlightAware Approximate
05:20AM 59.6756 28.7733 305° West  Level FlightAware Approximate
05:21AM 59.7419 28.5807 304° West  Level FlightAware Approximate
05:22AM 59.8079 28.3874 304° West  Level FlightAware Approximate
05:23AM 59.8736 28.1934 304° West  Level FlightAware Approximate
05:24AM 59.9390 27.9986 304° West  Level FlightAware Approximate
05:25AM 60.0042 27.8030 304° West  Level FlightAware Approximate
05:26AM 60.0690 27.6066 304° West  Level FlightAware Approximate
05:27AM 60.1335 27.4095 303° West  Level FlightAware Approximate
05:28AM 60.1978 27.2116 303° West  Level FlightAware Approximate
05:29AM 60.2618 27.0129 303° West  Level FlightAware Approximate
05:30AM 60.3254 26.8134 303° West  Level FlightAware Approximate
05:31AM 60.3888 26.6132 303° West  Level FlightAware Approximate
05:32AM 60.4519 26.4122 303° West  Level FlightAware Approximate
05:33AM 60.5146 26.2104 302° West  Level FlightAware Approximate
05:34AM 60.5771 26.0078 302° West  Level FlightAware Approximate
05:35AM 60.6392 25.8044 302° West  Level FlightAware Approximate
05:36AM 60.7011 25.6003 302° West  Level FlightAware Approximate
05:37AM 60.7626 25.3954 302° West  Level FlightAware Approximate
05:38AM 60.8238 25.1896 301° West  Level FlightAware Approximate
05:39AM 60.8847 24.9832 301° West  Level FlightAware Approximate
05:40AM 60.9453 24.7759 301° West  Level FlightAware Approximate
05:41AM 61.0056 24.5678 301° West  Level FlightAware Approximate
05:42AM 61.0655 24.3589 301° West  Level FlightAware Approximate
05:43AM 61.1251 24.1493 301° West  Level FlightAware Approximate
05:44AM 61.1844 23.9388 300° West  Level FlightAware Approximate
05:45AM 61.2434 23.7276 300° West  Level FlightAware Approximate
05:46AM 61.3020 23.5155 300° West  Level FlightAware Approximate
05:47AM 61.3603 23.3027 300° West  Level FlightAware Approximate
05:48AM 61.4183 23.0891 300° West  Level FlightAware Approximate
05:49AM 61.4759 22.8747 299° West  Level FlightAware Approximate
05:50AM 61.5332 22.6595 299° West  Level FlightAware Approximate
05:51AM 61.5901 22.4435 299° West  Level FlightAware Approximate
05:52AM 61.6467 22.2267 299° West  Level FlightAware Approximate
05:53AM 61.7030 22.0091 299° West  Level FlightAware Approximate
05:54AM 61.7589 21.7908 298° West  Level FlightAware Approximate
05:55AM 61.8145 21.5716 298° West  Level FlightAware Approximate
05:56AM 61.8697 21.3517 298° West  Level FlightAware Approximate
05:57AM 61.9246 21.1309 298° West  Level FlightAware Approximate
05:58AM 61.9791 20.9094 298° West  Level FlightAware Approximate
05:59AM 62.0333 20.6870 298° West  Level FlightAware Approximate
06:00AM 62.0871 20.4639 297° West  Level FlightAware Approximate
06:01AM 62.1405 20.2400 297° West  Level FlightAware Approximate
06:02AM 62.1936 20.0153 297° West  Level FlightAware Approximate
06:03AM 62.2463 19.7898 297° West  Level FlightAware Approximate
06:04AM 62.2986 19.5636 297° West  Level FlightAware Approximate
06:05AM 62.3506 19.3365 296° West  Level FlightAware Approximate
06:06AM 62.4022 19.1087 296° West  Level FlightAware Approximate
06:07AM 62.4534 18.8800 296° West  Level FlightAware Approximate
06:08AM 62.5043 18.6506 296° West  Level FlightAware Approximate
06:09AM 62.5548 18.4204 296° West  Level FlightAware Approximate
06:10AM 62.6049 18.1894 295° West  Level FlightAware Approximate
06:11AM 62.6546 17.9577 295° West  Level FlightAware Approximate
06:12AM 62.7039 17.7252 295° West  Level FlightAware Approximate
06:13AM 62.7529 17.4919 295° West  Level FlightAware Approximate
06:14AM 62.8014 17.2578 294° West  Level FlightAware Approximate
06:15AM 62.8496 17.0230 294° West  Level FlightAware Approximate
06:16AM 62.8974 16.7874 294° West  Level FlightAware Approximate
06:17AM 62.9448 16.5510 294° West  Level FlightAware Approximate
06:18AM 62.9918 16.3139 294° West  Level FlightAware Approximate
06:19AM 63.0384 16.0760 293° West  Level FlightAware Approximate
06:20AM 63.0845 15.8373 293° West  Level FlightAware Approximate
06:21AM 63.1303 15.5979 293° West  Level FlightAware Approximate
06:22AM 63.1757 15.3577 293° West  Level FlightAware Approximate
06:23AM 63.2207 15.1168 293° West  Level FlightAware Approximate
06:24AM 63.2653 14.8751 292° West  Level FlightAware Approximate
06:25AM 63.3094 14.6327 292° West  Level FlightAware Approximate
06:26AM 63.3532 14.3896 292° West  Level FlightAware Approximate
06:27AM 63.3965 14.1457 292° West  Level FlightAware Approximate
06:28AM 63.4394 13.9011 292° West  Level FlightAware Approximate
06:29AM 63.4819 13.6557 291° West  Level FlightAware Approximate
06:30AM 63.5240 13.4096 291° West  Level FlightAware Approximate
06:31AM 63.5656 13.1628 291° West  Level FlightAware Approximate
06:32AM 63.6068 12.9153 291° West  Level FlightAware Approximate
06:33AM 63.6476 12.6671 290° West  Level FlightAware Approximate
06:34AM 63.6880 12.4181 290° West  Level FlightAware Approximate
06:35AM 63.7279 12.1685 290° West  Level FlightAware Approximate
06:36AM 63.7674 11.9181 290° West  Level FlightAware Approximate
06:37AM 63.8065 11.6671 290° West  Level FlightAware Approximate
06:38AM 63.8451 11.4153 289° West  Level FlightAware Approximate
06:39AM 63.8833 11.1629 289° West  Level FlightAware Approximate
06:40AM 63.9211 10.9098 289° West  Level FlightAware Approximate
06:41AM 63.9584 10.6560 289° West  Level FlightAware Approximate
06:42AM 63.9953 10.4015 288° West  Level FlightAware Approximate
06:43AM 64.0317 10.1464 288° West  Level FlightAware Approximate
06:44AM 64.0676 9.8906 288° West  Level FlightAware Approximate
06:45AM 64.1032 9.6341 288° West  Level FlightAware Approximate
06:46AM 64.1382 9.3770 287° West  Level FlightAware Approximate
06:47AM 64.1728 9.1193 287° West  Level FlightAware Approximate
06:48AM 64.2070 8.8609 287° West  Level FlightAware Approximate
06:49AM 64.2407 8.6019 287° West  Level FlightAware Approximate
06:50AM 64.2739 8.3422 287° West  Level FlightAware Approximate
06:51AM 64.3067 8.0819 286° West  Level FlightAware Approximate
06:52AM 64.3390 7.8210 286° West  Level FlightAware Approximate
06:53AM 64.3709 7.5595 286° West  Level FlightAware Approximate
06:54AM 64.4023 7.2974 286° West  Level FlightAware Approximate
06:55AM 64.4332 7.0347 285° West  Level FlightAware Approximate
06:56AM 64.4636 6.7714 285° West  Level FlightAware Approximate
06:57AM 64.4936 6.5076 285° West  Level FlightAware Approximate
06:58AM 64.5231 6.2431 285° West  Level FlightAware Approximate
06:59AM 64.5521 5.9781 284° West  Level FlightAware Approximate
07:00AM 64.5807 5.7126 284° West  Level FlightAware Approximate
07:01AM 64.6088 5.4464 284° West  Level FlightAware Approximate
07:02AM 64.6364 5.1798 284° West  Level FlightAware Approximate
07:03AM 64.6635 4.9125 283° West  Level FlightAware Approximate
07:04AM 64.6901 4.6448 283° West  Level FlightAware Approximate
07:05AM 64.7162 4.3766 283° West  Level FlightAware Approximate
07:06AM 64.7419 4.1078 283° West  Level FlightAware Approximate
07:07AM 64.7671 3.8385 282° West  Level FlightAware Approximate
07:08AM 64.7917 3.5687 282° West  Level FlightAware Approximate
07:09AM 64.8159 3.2984 282° West  Level FlightAware Approximate
07:10AM 64.8396 3.0277 282° West  Level FlightAware Approximate
07:11AM 64.8628 2.7565 282° West  Level FlightAware Approximate
07:12AM 64.8855 2.4848 281° West  Level FlightAware Approximate
07:13AM 64.9078 2.2127 281° West  Level FlightAware Approximate
07:14AM 64.9295 1.9401 281° West  Level FlightAware Approximate
07:15AM 64.9507 1.6671 281° West  Level FlightAware Approximate
07:16AM 64.9714 1.3936 280° West  Level FlightAware Approximate
07:17AM 64.9916 1.1197 280° West  Level FlightAware Approximate
07:18AM 65.0113 0.8455 280° West  Level FlightAware Approximate
07:19AM 65.0305 0.5708 280° West  Level FlightAware Approximate
07:20AM 65.0493 0.2957 279° West  Level FlightAware Approximate
07:21AM 65.0675 0.0203 279° West  Level FlightAware Approximate
07:22AM 65.0852 -0.2556 279° West  Level FlightAware Approximate
07:23AM 65.1023 -0.5317 279° West  Level FlightAware Approximate
07:24AM 65.1190 -0.8083 278° West  Level FlightAware Approximate
07:25AM 65.1352 -1.0852 278° West  Level FlightAware Approximate
07:26AM 65.1508 -1.3624 278° West  Level FlightAware Approximate
07:27AM 65.1660 -1.6399 278° West  Level FlightAware Approximate
07:28AM 65.1806 -1.9177 277° West  Level FlightAware Approximate
07:29AM 65.1947 -2.1959 277° West  Level FlightAware Approximate
07:30AM 65.2083 -2.4743 277° West  Level FlightAware Approximate
07:31AM 65.2214 -2.7530 277° West  Level FlightAware Approximate
07:32AM 65.2340 -3.0320 276° West  Level FlightAware Approximate
07:33AM 65.2460 -3.3113 276° West  Level FlightAware Approximate
07:34AM 65.2576 -3.5908 276° West  Level FlightAware Approximate
07:35AM 65.2686 -3.8705 276° West  Level FlightAware Approximate
07:36AM 65.2791 -4.1505 275° West  Level FlightAware Approximate
07:37AM 65.2891 -4.4306 275° West  Level FlightAware Approximate
07:38AM 65.2986 -4.7110 275° West  Level FlightAware Approximate
07:39AM 65.3075 -4.9916 274° West  Level FlightAware Approximate
07:40AM 65.3159 -5.2724 274° West  Level FlightAware Approximate
07:41AM 65.3238 -5.5533 274° West  Level FlightAware Approximate
07:42AM 65.3311 -5.8344 274° West  Level FlightAware Approximate
07:43AM 65.3380 -6.1157 273° West  Level FlightAware Approximate
07:44AM 65.3443 -6.3971 273° West  Level FlightAware Approximate
07:45AM 65.3501 -6.6786 273° West  Level FlightAware Approximate
07:46AM 65.3554 -6.9602 273° West  Level FlightAware Approximate
07:47AM 65.3601 -7.2420 272° West  Level FlightAware Approximate
07:48AM 65.3643 -7.5238 272° West  Level FlightAware Approximate
07:49AM 65.3680 -7.8058 272° West  Level FlightAware Approximate
07:50AM 65.3712 -8.0878 272° West  Level FlightAware Approximate
07:51AM 65.3739 -8.3699 271° West  Level FlightAware Approximate
07:52AM 65.3760 -8.6520 271° West  Level FlightAware Approximate
07:53AM 65.3776 -8.9341 271° West  Level FlightAware Approximate
07:54AM 65.3786 -9.2163 271° West  Level FlightAware Approximate
07:55AM 65.3792 -9.4985 270° West  Level FlightAware Approximate
07:56AM 65.3792 -9.7807 270° West  Level FlightAware Approximate
07:57AM 65.3787 -10.0630 270° West  Level FlightAware Approximate
07:58AM 65.3776 -10.3451 270° West  Level FlightAware Approximate
07:59AM 65.3761 -10.6273 269° West  Level FlightAware Approximate
08:00AM 65.3740 -10.9094 269° West  Level FlightAware Approximate
08:01AM 65.3714 -11.1915 269° West  Level FlightAware Approximate
08:02AM 65.3682 -11.4735 269° West  Level FlightAware Approximate
08:03AM 65.3645 -11.7554 268° West  Level FlightAware Approximate
08:04AM 65.3604 -12.0373 268° West  Level FlightAware Approximate
08:05AM 65.3556 -12.3190 268° West  Level FlightAware Approximate
08:06AM 65.3504 -12.6007 268° West  Level FlightAware Approximate
08:07AM 65.3446 -12.8822 267° West  Level FlightAware Approximate
08:08AM 65.3383 -13.1636 267° West  Level FlightAware Approximate
08:09AM 65.3315 -13.4449 267° West  Level FlightAware Approximate
08:10AM 65.3242 -13.7260 267° West  Level FlightAware Approximate
08:11AM 65.3163 -14.0070 266° West  Level FlightAware Approximate
08:12AM 65.3079 -14.2877 266° West  Level FlightAware Approximate
08:13AM 65.2990 -14.5683 266° West  Level FlightAware Approximate
08:14AM 65.2896 -14.8487 266° West  Level FlightAware Approximate
08:15AM 65.2796 -15.1289 265° West  Level FlightAware Approximate
08:16AM 65.2691 -15.4089 265° West  Level FlightAware Approximate
08:17AM 65.2581 -15.6886 265° West  Level FlightAware Approximate
08:18AM 65.2466 -15.9681 265° West  Level FlightAware Approximate
08:19AM 65.2346 -16.2474 264° West  Level FlightAware Approximate
08:20AM 65.2221 -16.5264 264° West  Level FlightAware Approximate
08:21AM 65.2090 -16.8051 264° West  Level FlightAware Approximate
08:22AM 65.1954 -17.0836 263° West  Level FlightAware Approximate
08:23AM 65.1813 -17.3617 263° West  Level FlightAware Approximate
08:24AM 65.1667 -17.6396 263° West  Level FlightAware Approximate
08:25AM 65.1516 -17.9171 263° West  Level FlightAware Approximate
08:26AM 65.1360 -18.1944 262° West  Level FlightAware Approximate
08:27AM 65.1198 -18.4713 262° West  Level FlightAware Approximate
08:28AM 65.1032 -18.7478 262° West  Level FlightAware Approximate
08:29AM 65.0860 -19.0240 262° West  Level FlightAware Approximate
08:30AM 65.0684 -19.2998 261° West  Level FlightAware Approximate
08:31AM 65.0502 -19.5753 261° West  Level FlightAware Approximate
08:32AM 65.0315 -19.8504 261° West  Level FlightAware Approximate
08:33AM 65.0123 -20.1251 261° West  Level FlightAware Approximate
08:34AM 64.9926 -20.3994 260° West  Level FlightAware Approximate
08:35AM 64.9724 -20.6733 260° West  Level FlightAware Approximate
08:36AM 64.9517 -20.9468 260° West  Level FlightAware Approximate
08:37AM 64.9305 -21.2198 260° West  Level FlightAware Approximate
08:38AM 64.9089 -21.4924 259° West  Level FlightAware Approximate
08:39AM 64.8867 -21.7646 259° West  Level FlightAware Approximate
08:40AM 64.8640 -22.0363 259° West  Level FlightAware Approximate
08:41AM 64.8408 -22.3075 259° West  Level FlightAware Approximate
08:42AM 64.8171 -22.5783 259° West  Level FlightAware Approximate
08:43AM 64.7930 -22.8486 258° West  Level FlightAware Approximate
08:44AM 64.7683 -23.1184 258° West  Level FlightAware Approximate
08:45AM 64.7431 -23.3877 258° West  Level FlightAware Approximate
08:46AM 64.7175 -23.6565 258° West  Level FlightAware Approximate
08:47AM 64.6914 -23.9248 257° West  Level FlightAware Approximate
08:48AM 64.6648 -24.1925 257° West  Level FlightAware Approximate
08:49AM 64.6377 -24.4597 257° West  Level FlightAware Approximate
08:50AM 64.6101 -24.7264 257° West  Level FlightAware Approximate
08:51AM 64.5821 -24.9926 256° West  Level FlightAware Approximate
08:52AM 64.5536 -25.2582 256° West  Level FlightAware Approximate
08:53AM 64.5246 -25.5232 256° West  Level FlightAware Approximate
08:54AM 64.4951 -25.7877 256° West  Level FlightAware Approximate
08:55AM 64.4651 -26.0516 255° West  Level FlightAware Approximate
08:56AM 64.4347 -26.3149 255° West  Level FlightAware Approximate
08:57AM 64.4038 -26.5777 255° West  Level FlightAware Approximate
08:58AM 64.3725 -26.8398 255° West  Level FlightAware Approximate
08:59AM 64.3406 -27.1013 254° West  Level FlightAware Approximate
09:00AM 64.3083 -27.3622 254° West  Level FlightAware Approximate
09:01AM 64.2756 -27.6225 254° West  Level FlightAware Approximate
09:02AM 64.2424 -27.8822 254° West  Level FlightAware Approximate
09:03AM 64.2087 -28.1413 253° West  Level FlightAware Approximate
09:04AM 64.1746 -28.3997 253° West  Level FlightAware Approximate
09:05AM 64.1400 -28.6575 253° West  Level FlightAware Approximate
09:06AM 64.1049 -28.9147 253° West  Level FlightAware Approximate
09:07AM 64.0694 -29.1712 253° West  Level FlightAware Approximate
09:08AM 64.0335 -29.4270 252° West  Level FlightAware Approximate
09:09AM 63.9971 -29.6821 252° West  Level FlightAware Approximate
09:10AM 63.9603 -29.9366 252° West  Level FlightAware Approximate
09:11AM 63.9230 -30.1905 252° West  Level FlightAware Approximate
09:12AM 63.8852 -30.4436 251° West  Level FlightAware Approximate
09:13AM 63.8471 -30.6961 251° West  Level FlightAware Approximate
09:14AM 63.8084 -30.9479 251° West  Level FlightAware Approximate
09:15AM 63.7694 -31.1990 251° West  Level FlightAware Approximate
09:16AM 63.7299 -31.4494 250° West  Level FlightAware Approximate
09:17AM 63.6900 -31.6991 250° West  Level FlightAware Approximate
09:18AM 63.6497 -31.9480 250° West  Level FlightAware Approximate
09:19AM 63.6089 -32.1963 250° West  Level FlightAware Approximate
09:20AM 63.5679 -32.4438 250° West  Level FlightAware Approximate
09:21AM 63.5264 -32.6908 249° West  Level FlightAware Approximate
09:22AM 63.4846 -32.9371 249° West  Level FlightAware Approximate
09:23AM 63.4423 -33.1826 249° West  Level FlightAware Approximate
09:24AM 63.3996 -33.4275 249° West  Level FlightAware Approximate
09:25AM 63.3565 -33.6716 249° West  Level FlightAware Approximate
09:26AM 63.3130 -33.9149 248° West  Level FlightAware Approximate
09:27AM 63.2690 -34.1576 248° West  Level FlightAware Approximate
09:28AM 63.2247 -34.3994 248° West  Level FlightAware Approximate
09:29AM 63.1799 -34.6406 248° West  Level FlightAware Approximate
09:30AM 63.1347 -34.8810 248° West  Level FlightAware Approximate
09:31AM 63.0891 -35.1206 247° West  Level FlightAware Approximate
09:32AM 63.0432 -35.3595 247° West  Level FlightAware Approximate
09:33AM 62.9968 -35.5976 247° West  Level FlightAware Approximate
09:34AM 62.9500 -35.8350 247° West  Level FlightAware Approximate
09:35AM 62.9028 -36.0716 246° West  Level FlightAware Approximate
09:36AM 62.8553 -36.3075 246° West  Level FlightAware Approximate
09:37AM 62.8072 -36.5424 246° West  Level FlightAware Approximate
09:38AM 62.7587 -36.7766 246° West  Level FlightAware Approximate
09:39AM 62.7098 -37.0100 246° West  Level FlightAware Approximate
09:40AM 62.6605 -37.2427 245° Southwest  Level FlightAware Approximate
09:41AM 62.6109 -37.4745 245° Southwest  Level FlightAware Approximate
09:42AM 62.5608 -37.7056 245° Southwest  Level FlightAware Approximate
09:43AM 62.5104 -37.9359 245° Southwest  Level FlightAware Approximate
09:44AM 62.4596 -38.1654 245° Southwest  Level FlightAware Approximate
09:45AM 62.4084 -38.3942 244° Southwest  Level FlightAware Approximate
09:46AM 62.3569 -38.6221 244° Southwest  Level FlightAware Approximate
09:47AM 62.3050 -38.8493 244° Southwest  Level FlightAware Approximate
09:48AM 62.2527 -39.0757 244° Southwest  Level FlightAware Approximate
09:49AM 62.2001 -39.3013 243° Southwest  Level FlightAware Approximate
09:50AM 62.1470 -39.5261 243° Southwest  Level FlightAware Approximate
09:51AM 62.0937 -39.7501 243° Southwest  Level FlightAware Approximate
09:52AM 62.0399 -39.9733 243° Southwest  Level FlightAware Approximate
09:53AM 61.9858 -40.1958 243° Southwest  Level FlightAware Approximate
09:54AM 61.9314 -40.4174 243° Southwest  Level FlightAware Approximate
09:55AM 61.8765 -40.6383 242° Southwest  Level FlightAware Approximate
09:56AM 61.8214 -40.8584 242° Southwest  Level FlightAware Approximate
09:57AM 61.7659 -41.0776 242° Southwest  Level FlightAware Approximate
09:58AM 61.7100 -41.2961 242° Southwest  Level FlightAware Approximate
09:59AM 61.6538 -41.5138 242° Southwest  Level FlightAware Approximate
10:00AM 61.5973 -41.7307 241° Southwest  Level FlightAware Approximate
10:01AM 61.5404 -41.9468 241° Southwest  Level FlightAware Approximate
10:02AM 61.4831 -42.1621 241° Southwest  Level FlightAware Approximate
10:03AM 61.4255 -42.3767 241° Southwest  Level FlightAware Approximate
10:04AM 61.3676 -42.5904 241° Southwest  Level FlightAware Approximate
10:05AM 61.3094 -42.8033 240° Southwest  Level FlightAware Approximate
10:06AM 61.2508 -43.0155 240° Southwest  Level FlightAware Approximate
10:07AM 61.1919 -43.2268 240° Southwest  Level FlightAware Approximate
10:08AM 61.1326 -43.4374 240° Southwest  Level FlightAware Approximate
10:09AM 61.0731 -43.6471 240° Southwest  Level FlightAware Approximate
10:10AM 61.0132 -43.8561 239° Southwest  Level FlightAware Approximate
10:11AM 60.9530 -44.0643 239° Southwest  Level FlightAware Approximate
10:12AM 60.8925 -44.2717 239° Southwest  Level FlightAware Approximate
10:13AM 60.8316 -44.4783 239° Southwest  Level FlightAware Approximate
10:14AM 60.7705 -44.6842 239° Southwest  Level FlightAware Approximate
10:15AM 60.7090 -44.8892 239° Southwest  Level FlightAware Approximate
10:16AM 60.6472 -45.0935 238° Southwest  Level FlightAware Approximate
10:17AM 60.5851 -45.2969 238° Southwest  Level FlightAware Approximate
10:18AM 60.5227 -45.4996 238° Southwest  Level FlightAware Approximate
10:19AM 60.4600 -45.7015 238° Southwest  Level FlightAware Approximate
10:20AM 60.3970 -45.9027 238° Southwest  Level FlightAware Approximate
10:21AM 60.3337 -46.1030 238° Southwest  Level FlightAware Approximate
10:22AM 60.2701 -46.3026 237° Southwest  Level FlightAware Approximate
10:23AM 60.2061 -46.5014 237° Southwest  Level FlightAware Approximate
10:24AM 60.1419 -46.6994 237° Southwest  Level FlightAware Approximate
10:25AM 60.0774 -46.8967 237° Southwest  Level FlightAware Approximate
10:26AM 60.0126 -47.0931 237° Southwest  Level FlightAware Approximate
10:27AM 59.9475 -47.2888 236° Southwest  Level FlightAware Approximate
10:28AM 59.8821 -47.4838 236° Southwest  Level FlightAware Approximate
10:29AM 59.8165 -47.6780 236° Southwest  Level FlightAware Approximate
10:30AM 59.7505 -47.8714 236° Southwest  Level FlightAware Approximate
10:31AM 59.6843 -48.0640 236° Southwest  Level FlightAware Approximate
10:32AM 59.6178 -48.2559 236° Southwest  Level FlightAware Approximate
10:33AM 59.5510 -48.4470 235° Southwest  Level FlightAware Approximate
10:34AM 59.4839 -48.6374 235° Southwest  Level FlightAware Approximate
10:35AM 59.4166 -48.8270 235° Southwest  Level FlightAware Approximate
10:36AM 59.3490 -49.0158 235° Southwest  Level FlightAware Approximate
10:37AM 59.2811 -49.2039 235° Southwest  Level FlightAware Approximate
10:38AM 59.2129 -49.3913 235° Southwest  Level FlightAware Approximate
10:39AM 59.1445 -49.5779 234° Southwest  Level FlightAware Approximate
10:40AM 59.0758 -49.7637 234° Southwest  Level FlightAware Approximate
10:41AM 59.0068 -49.9488 234° Southwest  Level FlightAware Approximate
10:42AM 58.9376 -50.1332 234° Southwest  Level FlightAware Approximate
10:43AM 58.8681 -50.3168 234° Southwest  Level FlightAware Approximate
10:44AM 58.7984 -50.4997 234° Southwest  Level FlightAware Approximate
10:45AM 58.7284 -50.6819 234° Southwest  Level FlightAware Approximate
10:46AM 58.6581 -50.8633 233° Southwest  Level FlightAware Approximate
10:47AM 58.5876 -51.0440 233° Southwest  Level FlightAware Approximate
10:48AM 58.5169 -51.2240 233° Southwest  Level FlightAware Approximate
10:49AM 58.4353 -51.3827 226° Southwest  Level Estimated
10:50AM 58.3535 -51.5407 225° Southwest  Level Estimated
10:51AM 58.2715 -51.6979 225° Southwest  Level Estimated
10:52AM 58.1893 -51.8544 225° Southwest  Level Estimated
10:53AM 58.1070 -52.0101 225° Southwest  Level Estimated
10:53AM 59.4833 -56.7333 224° Southwest 450 518 34,000  Level Gander Center
10:54AM 58.0244 -52.1652 225° Southwest  Level Estimated
10:54AM 59.4000 -56.9000 226° Southwest 450 518 34,000  Level Gander Center
10:55AM 57.9417 -52.3195 225° Southwest  Level Estimated
10:55AM 59.3167 -57.0667 226° Southwest 440 506 34,000  Level Gander Center
10:56AM 57.8587 -52.4731 225° Southwest  Level Estimated
10:56AM 59.2500 -57.2500 235° Southwest 450 518 34,000  Level Gander Center
10:57AM 57.7756 -52.6261 224° Southwest  Level Estimated
10:57AM 59.1500 -57.3833 214° Southwest 440 506 34,000  Level Gander Center
10:58AM 57.6923 -52.7783 224° Southwest  Level Estimated
10:58AM 59.0333 -57.5333 214° Southwest 440 506 34,000  Level Gander Center
10:59AM 57.6089 -52.9298 224° Southwest  Level Estimated
10:59AM 58.9333 -57.6667 215° Southwest 440 506 34,000  Level Gander Center
11:00AM 58.8167 -57.7667 204° Southwest 440 506 34,000  Level Gander Center
11:01AM 58.7167 -57.9167 218° Southwest 450 518 34,000  Level Gander Center
11:02AM 58.6167 -58.0167 208° Southwest 440 506 34,000  Level Gander Center
11:03AM 58.5000 -58.1167 204° Southwest 440 506 34,000  Level Gander Center
11:04AM 58.4000 -58.2667 218° Southwest 440 506 34,000  Level Gander Center
11:05AM 58.3000 -58.3667 208° Southwest 440 506 34,000  Level Gander Center
11:06AM 58.1833 -58.5000 211° Southwest 430 495 34,000  Level Gander Center
11:07AM 58.1000 -58.6000 212° Southwest 430 495 34,000  Level Gander Center
11:08AM 57.9833 -58.7000 204° Southwest 440 506 34,000  Level Gander Center
11:09AM 57.8833 -58.8333 215° Southwest 440 506 34,000  Level Gander Center
11:10AM 57.7833 -58.9333 208° Southwest 430 495 34,000  Level Gander Center
11:11AM 57.6667 -59.0667 211° Southwest 430 495 34,000  Level Gander Center
11:12AM 57.5500 -59.1667 205° Southwest 440 506 34,000  Level Gander Center
11:13AM 57.4500 -59.2667 208° Southwest 440 506 34,000  Level Gander Center
11:14AM 57.3500 -59.4000 216° Southwest 430 495 34,000  Level Gander Center
11:15AM 57.2333 -59.5000 205° Southwest 430 495 34,000  Level Gander Center
11:16AM 57.1500 -59.5833 208° Southwest 430 495 34,000  Level Gander Center
11:17AM 57.0500 -59.7167 216° Southwest 430 495 34,000  Level Gander Center
11:18AM 56.9500 -59.8167 209° Southwest 420 483 34,000  Level Gander Center
11:19AM 56.8333 -59.9333 209° Southwest 420 483 34,000  Level Gander Center
11:20AM 56.7333 -60.0000 200° South 420 483 34,000  Level Gander Center
11:21AM 56.6333 -60.1333 216° Southwest 420 483 34,000  Level Gander Center
11:22AM 56.5333 -60.2167 205° Southwest 420 483 34,000  Level Gander Center
11:23AM 56.4167 -60.3500 212° Southwest 410 472 34,000  Level Gander Center
11:24AM 56.3333 -60.4333 209° Southwest 410 472 34,000  Level Gander Center
11:25AM 56.2333 -60.5333 209° Southwest 410 472 34,000  Level Gander Center
11:26AM 56.1167 -60.6167 202° Southwest 410 472 34,000  Level Gander Center
11:27AM 56.0167 -60.7167 209° Southwest 410 472 34,000  Level Gander Center
11:28AM 55.9167 -60.8000 205° Southwest 410 472 34,000  Level Gander Center
11:29AM 55.8167 -60.9333 217° Southwest 410 472 34,000  Level Gander Center
11:30AM 55.7167 -61.0167 205° Southwest 410 472 34,000  Level Gander Center
11:31AM 55.6167 -61.1000 205° Southwest 410 472 34,000  Level Gander Center
11:32AM 55.5167 -61.2000 210° Southwest 410 472 34,000  Level Gander Center
11:33AM 55.4167 -61.2833 205° Southwest 410 472 34,000  Level Gander Center
11:34AM 55.3167 -61.3667 205° Southwest 410 472 34,000  Level Gander Center
11:35AM 55.2167 -61.4833 214° Southwest 410 472 34,000  Level Gander Center
11:36AM 55.1167 -61.5500 201° Southwest 400 460 34,000  Level Gander Center
11:37AM 55.0167 -61.6667 214° Southwest 400 460 34,000  Level Gander Center
11:38AM 54.9167 -61.7500 206° Southwest 400 460 34,000  Level Gander Center
11:39AM 54.8167 -61.8333 206° Southwest 400 460 34,000  Level Gander Center
11:40AM 54.7333 -61.9167 210° Southwest 400 460 34,000  Level Gander Center
11:41AM 54.6333 -62.0000 206° Southwest 400 460 34,000  Level Gander Center
11:42AM 54.5333 -62.0833 206° Southwest 390 449 34,000  Level Gander Center
11:43AM 54.4333 -62.1667 206° Southwest 390 449 34,000  Level Gander Center
11:44AM 54.3333 -62.2500 206° Southwest 390 449 34,000  Level Gander Center
11:45AM 54.2500 -62.3333 210° Southwest 390 449 34,000  Level Gander Center
11:46AM 54.1500 -62.4167 206° Southwest 390 449 34,000  Level Gander Center
11:47AM 54.0500 -62.5000 206° Southwest 390 449 34,000  Level Gander Center
11:48AM 53.9500 -62.5833 206° Southwest 390 449 34,000  Level Gander Center
11:49AM 53.8500 -62.6667 206° Southwest 380 437 34,000  Level Gander Center
11:50AM 53.7500 -62.7500 206° Southwest 380 437 34,000  Level Gander Center
11:51AM 53.6667 -62.8333 211° Southwest 380 437 34,000  Level Gander Center
11:52AM 53.5667 -62.9167 206° Southwest 380 437 34,000  Level Gander Center
11:53AM 53.4667 -63.0000 206° Southwest 370 426 34,000  Level Gander Center
11:54AM 53.3833 -63.0833 211° Southwest 370 426 34,000  Level Gander Center
11:55AM 53.2833 -63.1500 202° Southwest 370 426 34,000  Level Gander Center
11:56AM 53.2000 -63.2000 200° South 370 426 34,000  Level Gander Center
11:57AM 53.1000 -63.2833 207° Southwest 380 437 34,000  Level Gander Center
11:58AM 53.0167 -63.3667 211° Southwest 370 426 34,000  Level Gander Center
11:59AM 52.9167 -63.4500 207° Southwest 370 426 34,000  Level Gander Center
12:00PM 52.8167 -63.5167 202° Southwest 370 426 34,000  Level Gander Center
12:01PM 52.7333 -63.6000 211° Southwest 360 414 34,000  Level Gander Center
12:02PM 52.6333 -63.6500 197° South 360 414 34,000  Level Gander Center
12:03PM 52.5500 -63.7333 211° Southwest 360 414 34,000  Level Gander Center
12:04PM 52.4667 -63.8000 206° Southwest 350 403 34,000  Level Gander Center
12:05PM 52.3833 -63.8833 211° Southwest 350 403 34,000  Level Gander Center
12:06PM 52.2833 -63.9333 197° South 350 403 34,000  Level Gander Center
12:07PM 52.2167 -64.0167 217° Southwest 340 391 34,000  Level Gander Center
12:08PM 52.1333 -64.0833 206° Southwest 340 391 34,000  Level Gander Center
12:09PM 52.0333 -64.1333 197° South 340 391 34,000  Level Gander Center
12:10PM 51.9333 -64.2167 207° Southwest 340 391 34,000  Level Gander Center
12:11PM 51.8667 -64.2667 205° Southwest 330 380 34,000  Level Gander Center
12:12PM 51.7833 -64.3333 206° Southwest 320 368 34,000  Level Gander Center
12:13PM 51.7000 -64.3833 200° South 320 368 34,000  Level Gander Center
12:14PM 51.6333 -64.4667 218° Southwest 320 368 34,000  Level Gander Center
12:15PM 51.5500 -64.5167 200° South 320 368 34,000  Level Gander Center
12:16PM 51.4667 -64.5833 206° Southwest 320 368 34,000  Level Gander Center
12:17PM 51.3833 -64.6333 201° Southwest 320 368 34,000  Level Gander Center
12:18PM 51.3000 -64.7000 207° Southwest 320 368 34,000  Level Gander Center
12:19PM 51.2167 -64.7500 201° Southwest 320 368 34,000  Level Gander Center
12:20PM 51.1333 -64.8333 212° Southwest 310 357 34,000  Level Gander Center
12:21PM 51.0667 -64.8833 205° Southwest 310 357 34,000  Level Gander Center
12:22PM 50.9833 -64.9167 194° South 300 345 34,000  Level Gander Center
12:23PM 50.9167 -65.0000 218° Southwest 300 345 34,000  Level Gander Center
12:24PM 50.8333 -65.0500 201° Southwest 300 345 34,000  Level Gander Center
12:25PM 50.7667 -65.0833 198° South 300 345 34,000  Level Gander Center
12:26PM 50.6667 -65.1667 208° Southwest 310 357 34,000  Level Gander Center
12:27PM 50.6000 -65.2167 205° Southwest 310 357 34,000  Level Gander Center
12:28PM 50.5167 -65.2500 194° South 310 357 34,000  Level Gander Center
12:29PM 50.4333 -65.3333 213° Southwest 310 357 34,000  Level Gander Center
12:30PM 50.3667 -65.3667 198° South 310 357 34,000  Level Gander Center
12:31PM 50.2833 -65.4500 213° Southwest 310 357 34,000  Level Gander Center
12:32PM 50.2167 -65.4833 198° South 310 357 34,000 60 Level Gander Center
12:33PM 50.1167 -65.5333 198° South 310 357 34,200 300 Climbing Gander Center
12:34PM 50.0500 -65.6000 213° Southwest 310 357 34,600 480 Climbing Moncton Center
12:34PM 50.0500 -65.6000 213° Southwest 310 357 34,700 360 Climbing Gander Center
12:35PM 49.9833 -65.6500 206° Southwest 310 357 35,000 120 Climbing Moncton Center
12:36PM 49.9000 -65.7000 201° Southwest 310 357 35,000  Level Moncton Center
12:37PM 49.8167 -65.7667 207° Southwest 310 357 35,000  Level Gander Center
12:38PM 49.7333 -65.8167 201° Southwest 310 357 35,000  Level Gander Center
12:39PM 49.6667 -65.8833 213° Southwest 310 357 35,000  Level Gander Center
12:40PM 49.5833 -65.9333 201° Southwest 310 357 35,000  Level Gander Center
12:41PM 49.5000 -65.9667 195° South 310 357 35,000  Level Gander Center
12:42PM 49.4167 -66.0333 207° Southwest 310 357 35,000  Level Gander Center
12:43PM 49.3500 -66.0833 206° Southwest 310 357 35,000  Level Gander Center
12:44PM 49.2667 -66.1333 201° Southwest 310 357 35,000  Level Gander Center
12:45PM 49.1833 -66.2000 208° Southwest 310 357 35,000  Level Gander Center
12:46PM 49.1167 -66.2333 198° South 310 357 35,000  Level Gander Center
12:47PM 49.0333 -66.3000 208° Southwest 310 357 35,000  Level Gander Center
12:48PM 48.9500 -66.3500 202° Southwest 310 357 35,000  Level Gander Center
12:49PM 48.8667 -66.3833 195° South 310 357 35,000  Level Gander Center
12:50PM 48.8000 -66.4667 219° Southwest 320 368 35,000  Level Gander Center
12:51PM 48.7167 -66.5000 195° South 310 357 35,000  Level Moncton Center
12:51PM 48.7167 -66.5000 195° South 320 368 35,000  Level Gander Center
12:52PM 48.6333 -66.5500 202° Southwest 320 368 35,000  Level Moncton Center
12:53PM 48.5667 -66.6000 206° Southwest 320 368 35,000  Level Moncton Center
12:54PM 48.4833 -66.6667 208° Southwest 320 368 35,000  Level Moncton Center
12:55PM 48.4000 -66.7167 202° Southwest 320 368 35,000  Level Moncton Center
12:56PM 48.3167 -66.7667 202° Southwest 320 368 35,000  Level Moncton Center
12:57PM 48.2333 -66.8167 202° Southwest 330 380 35,000  Level Moncton Center
12:58PM 48.1500 -66.8833 208° Southwest 330 380 35,000  Level Moncton Center
12:59PM 48.0500 -66.9333 198° South 330 380 35,000  Level Moncton Center
01:00PM 47.9667 -66.9667 195° South 330 380 35,000  Level Moncton Center
01:01PM 47.8833 -67.0500 214° Southwest 330 380 35,000  Level Moncton Center
01:02PM 47.8167 -67.0833 199° South 330 380 35,000  Level Moncton Center
01:03PM 47.7167 -67.1333 199° South 330 380 35,000  Level Moncton Center
01:04PM 47.6500 -67.2000 214° Southwest 330 380 35,000  Level Moncton Center
01:05PM 47.5500 -67.2500 199° South 330 380 35,000  Level Moncton Center
01:06PM 47.4667 -67.3000 202° Southwest 340 391 35,000  Level Moncton Center
01:07PM 47.3833 -67.3667 208° Southwest 330 380 35,000  Level Moncton Center
01:09PM 47.3008 -67.4183 203° Southwest 334 384 35,000  Level Boston Center
01:10PM 47.2164 -67.4728 204° Southwest 332 382 35,000  Level Boston Center
01:10PM 47.1167 -67.5167 197° South 330 380 35,000  Level Moncton Center
01:11PM 47.0500 -67.5667 207° Southwest 330 380 35,000  Level Moncton Center
01:12PM 46.9500 -67.6333 204° Southwest 330 380 35,000  Level Moncton Center
01:13PM 46.8833 -67.6833 207° Southwest 320 368 35,000  Level Moncton Center
01:14PM 46.7833 -67.7167 193° South 330 380 35,000  Level Moncton Center
01:15PM 46.7167 -67.7833 214° Southwest 330 380 35,000  Level Moncton Center
01:16PM 46.6167 -67.8333 199° South 340 391 35,000  Level Moncton Center
01:17PM 46.5333 -67.8833 202° Southwest 330 380 35,000  Level Moncton Center
01:18PM 46.4500 -67.9167 195° South 330 380 35,000  Level Moncton Center
01:19PM 46.3500 -67.9833 205° Southwest 330 380 35,000  Level Moncton Center
01:20PM 46.3450 -68.0039 251° West 332 382 35,000  Level Boston Center
01:21PM 46.2575 -68.0536 201° Southwest 334 384 35,000  Level Boston Center
01:22PM 46.1722 -68.1050 203° Southwest 332 382 35,000  Level Boston Center
01:23PM 46.0858 -68.1558 202° Southwest 334 384 35,000  Level Boston Center
01:24PM 45.9894 -68.2133 203° Southwest 335 386 35,000  Level Boston Center
01:25PM 45.9025 -68.2647 202° Southwest 338 389 35,000  Level Boston Center
01:26PM 45.8153 -68.3153 202° Southwest 338 389 35,000  Level Boston Center
01:32PM 45.2808 -68.6246 202° Southwest 350 403 35,000  Level FlightAware ADS-B (CYQI)
01:32PM 45.2203 -68.6593 202° Southwest 350 403 35,000  Level FlightAware ADS-B (CYQI)
01:33PM 45.1721 -68.6867 202° Southwest 352 405 35,000  Level FlightAware ADS-B (CYQI)
01:34PM 45.1116 -68.7212 202° Southwest 354 407 35,000  Level FlightAware ADS-B (CYQI)
01:34PM 45.0412 -68.7613 202° Southwest 356 410 35,000  Level FlightAware ADS-B (CYQI)
01:35PM 44.9928 -68.7888 202° Southwest 356 410 35,000 120 Level FlightAware ADS-B (CYQI)
01:35PM 44.9323 -68.8230 202° Southwest 355 409 35,200 480 Climbing FlightAware ADS-B (CYQI)
01:36PM 44.8704 -68.8579 202° Southwest 356 410 35,600 480 Climbing FlightAware ADS-B (CYQI)
01:37PM 44.8091 -68.8958 204° Southwest 352 405 35,900 240 Climbing FlightAware ADS-B (CYQI)
01:38PM 44.7735 -68.9205 206° Southwest 352 405 36,000 60 Climbing FlightAware ADS-B (CYQI)
01:38PM 44.6982 -68.9724 206° Southwest 350 403 36,000  Level FlightAware ADS-B (CYQI)
01:39PM 44.6450 -69.0085 206° Southwest 354 407 36,000  Level FlightAware ADS-B (CYQI)
01:39PM 44.5909 -69.0453 206° Southwest 357 411 36,000  Level FlightAware ADS-B (CYQI)
01:40PM 44.5243 -69.0904 206° Southwest 356 410 36,000  Level FlightAware ADS-B (CYQI)
01:41PM 44.4700 -69.1271 206° Southwest 355 409 36,000  Level FlightAware ADS-B (CYQI)
01:41PM 44.4083 -69.1687 206° Southwest 357 411 36,000  Level FlightAware ADS-B (CYQI)
01:42PM 44.3523 -69.2065 206° Southwest 357 411 36,000  Level FlightAware ADS-B (CYQI)
01:43PM 44.3156 -69.2311 206° Southwest 357 411 36,000  Level FlightAware ADS-B
01:43PM 44.2616 -69.2673 206° Southwest 357 411 36,000  Level FlightAware ADS-B (CYQI)
01:44PM 44.2263 -69.2910 206° Southwest 357 411 36,000  Level FlightAware ADS-B
01:44PM 44.1777 -69.3235 206° Southwest 358 412 36,000  Level FlightAware ADS-B
01:45PM 44.1128 -69.3668 206° Southwest 358 412 36,000  Level FlightAware ADS-B (CYQI)
01:45PM 44.0745 -69.3923 206° Southwest 359 413 36,000  Level FlightAware ADS-B
01:46PM 44.0154 -69.4317 206° Southwest 361 415 36,000  Level FlightAware ADS-B
01:47PM 43.9552 -69.4715 206° Southwest 359 413 36,000  Level FlightAware ADS-B
01:47PM 43.9036 -69.5057 206° Southwest 359 413 36,000  Level FlightAware ADS-B (KBOS)
01:48PM 43.8520 -69.5399 206° Southwest 358 412 36,000  Level FlightAware ADS-B
01:49PM 43.7788 -69.5881 205° Southwest 360 414 36,000  Level FlightAware ADS-B (KBOS)
01:49PM 43.7233 -69.6245 205° Southwest 361 415 36,000  Level FlightAware ADS-B (KBOS)
01:50PM 43.6604 -69.6658 205° Southwest 358 412 36,000  Level FlightAware ADS-B (KBOS)
01:50PM 43.6348 -69.6825 205° Southwest 344 396 36,000  Level FlightAware ADS-B
01:50PM 43.6055 -69.7017 205° Southwest 340 391 36,000  Level FlightAware ADS-B
01:51PM 43.5504 -69.7377 205° Southwest 341 392 36,000  Level FlightAware ADS-B
01:52PM 43.5067 -69.7663 205° Southwest 340 391 36,000  Level FlightAware ADS-B
01:52PM 43.4638 -69.7943 205° Southwest 342 394 36,000  Level FlightAware ADS-B
01:53PM 43.4308 -69.8144 204° Southwest 356 410 36,000  Level FlightAware ADS-B (KBOS)
01:53PM 43.3964 -69.8297 198° South 359 413 36,000  Level FlightAware ADS-B (KBOS)
01:53PM 43.3490 -69.8438 192° South 369 425 36,000  Level FlightAware ADS-B (CYQI)
01:54PM 43.3103 -69.8499 187° South 374 430 36,000  Level FlightAware ADS-B (KBOS)
01:54PM 43.2543 -69.8587 187° South 374 430 36,000  Level FlightAware ADS-B
01:55PM 43.2026 -69.8668 187° South 375 432 36,000  Level FlightAware ADS-B (KBOS)
01:55PM 43.1482 -69.8749 186° South 376 433 36,000  Level FlightAware ADS-B
01:56PM 43.0964 -69.8825 186° South 376 433 36,000  Level FlightAware ADS-B (KBOS)
01:56PM 43.0393 -69.8909 186° South 377 434 36,000  Level FlightAware ADS-B (KBOS)
01:57PM 42.9441 -69.9047 186° South 371 427 36,000  Level FlightAware ADS-B
01:58PM 42.8752 -69.9148 186° South 380 437 36,000  Level FlightAware ADS-B (KBOS)
01:59PM 42.8005 -69.9255 186° South 382 440 36,000  Level FlightAware ADS-B (KBOS)
01:59PM 42.7296 -69.9358 186° South 383 441 36,000  Level FlightAware ADS-B (KBOS)
02:00PM 42.6596 -69.9458 186° South 384 442 36,000  Level FlightAware ADS-B (KBOS)
02:00PM 42.6668 -69.9448 North 386 444 36,000  Level FlightAware ADS-B (KOWD)
02:01PM 42.5502 -69.9616 186° South 388 447 36,000  Level FlightAware ADS-B (KBOS)
02:02PM 42.4778 -69.9719 186° South 389 448 36,000  Level FlightAware ADS-B (KBOS)
02:02PM 42.4073 -69.9820 186° South 390 449 36,000  Level FlightAware ADS-B (KBOS)
02:03PM 42.3315 -69.9927 186° South 392 451 36,000  Level FlightAware ADS-B (KBOS)
02:04PM 42.2752 -70.0008 186° South 394 453 36,000  Level FlightAware ADS-B
02:04PM 42.2157 -70.0092 186° South 394 453 36,000  Level FlightAware ADS-B (KBOS)
02:05PM 42.1426 -70.0216 187° South 388 447 36,000  Level FlightAware ADS-B
02:05PM 42.1066 -70.0332 193° South 379 436 36,000  Level FlightAware ADS-B (KBOS)
02:06PM 42.0529 -70.0593 200° South 373 429 36,000  Level FlightAware ADS-B
02:06PM 42.0049 -70.0926 207° Southwest 364 419 36,000  Level FlightAware ADS-B
02:07PM 41.9636 -70.1303 214° Southwest 357 411 36,000  Level FlightAware ADS-B (KOWD)
02:07PM 41.9252 -70.1749 221° Southwest 350 403 36,000  Level FlightAware ADS-B (KBOS)
02:08PM 41.8846 -70.2332 227° Southwest 347 399 36,000  Level FlightAware ADS-B
02:08PM 41.8479 -70.2863 227° Southwest 347 399 36,000  Level FlightAware ADS-B
02:09PM 41.8089 -70.3431 227° Southwest 350 403 36,000  Level FlightAware ADS-B (KBOS)
02:09PM 41.7921 -70.3676 227° Southwest 344 396 36,000  Level FlightAware ADS-B
02:10PM 41.7474 -70.4328 227° Southwest 350 403 36,000  Level FlightAware ADS-B
02:11PM 41.7031 -70.4971 227° Southwest 351 404 36,000  Level FlightAware ADS-B (KOWD)
02:11PM 41.6653 -70.5518 227° Southwest 352 405 36,000  Level FlightAware ADS-B
02:12PM 41.6453 -70.5807 227° Southwest 352 405 36,000  Level FlightAware ADS-B (KBOS)
02:12PM 41.5914 -70.6589 227° Southwest 350 403 36,000  Level FlightAware ADS-B (KOWD)
02:13PM 41.5662 -70.6951 227° Southwest 349 402 36,000  Level FlightAware ADS-B (KOWD)
02:14PM 41.5060 -70.7820 227° Southwest 350 403 36,000  Level FlightAware ADS-B
02:14PM 41.4838 -70.8138 227° Southwest 348 400 36,000 -540 Level FlightAware ADS-B (KOWD)
02:15PM 41.4047 -70.9270 227° Southwest 355 409 35,200 -960 Descending FlightAware ADS-B
02:16PM 41.3671 -70.9809 227° Southwest 356 410 34,700 -900 Descending FlightAware ADS-B
02:16PM 41.3213 -71.0462 227° Southwest 359 413 34,100 -540 Descending FlightAware ADS-B
02:17PM 41.2782 -71.1103 228° Southwest 348 400 34,000 -120 Descending FlightAware ADS-B
02:18PM 41.2438 -71.1835 238° Southwest 355 409 34,000  Level FlightAware ADS-B
02:18PM 41.2224 -71.2533 248° West 357 411 34,000  Level FlightAware ADS-B
02:19PM 41.2040 -71.3199 250° West 356 410 34,000  Level FlightAware ADS-B
02:19PM 41.1879 -71.3769 249° West 352 405 34,000  Level FlightAware ADS-B
02:20PM 41.1689 -71.4448 250° West 353 406 34,000  Level FlightAware ADS-B
02:20PM 41.1640 -71.4621 249° West 350 403 34,000  Level FlightAware ADS-B
02:20PM 41.1405 -71.5199 242° Southwest 353 406 34,000  Level FlightAware ADS-B
02:21PM 41.0939 -71.5853 227° Southwest 354 407 34,000  Level FlightAware ADS-B
02:22PM 41.0647 -71.6268 227° Southwest 357 411 34,000  Level FlightAware ADS-B (KSNC)
02:23PM 41.1623 -71.4680 51° Northeast 352 405 34,000  Level FlightAware ADS-B (KSNC)
02:27PM 40.7265 -72.1009 228° Southwest 362 417 34,000  Level FlightAware ADS-B (KSNC)
02:27PM 40.6652 -72.1861 227° Southwest 362 417 34,000  Level FlightAware ADS-B (KSNC)
02:29PM 40.5718 -72.3154 226° Southwest 364 419 34,000  Level FlightAware ADS-B (KSNC)
02:29PM 40.5300 -72.3733 226° Southwest 366 421 34,000  Level FlightAware ADS-B (KSNC)
02:30PM 40.4760 -72.4477 226° Southwest 366 421 34,000  Level FlightAware ADS-B (KSNC)
02:31PM 40.4299 -72.5110 226° Southwest 365 420 34,000  Level FlightAware ADS-B (KSNC)
02:32PM 40.3804 -72.5789 226° Southwest 364 419 34,000  Level FlightAware ADS-B (KSNC)
02:34PM 40.2035 -72.8203 226° Southwest 360 414 34,000  Level FlightAware ADS-B (KWWD)
02:35PM 40.1662 -72.8708 226° Southwest 360 414 34,000  Level FlightAware ADS-B (KWWD)
02:35PM 40.1228 -72.9299 226° Southwest 367 422 34,000  Level FlightAware ADS-B (KSNC)
02:35PM 40.1084 -72.9493 226° Southwest 367 422 34,000  Level FlightAware ADS-B (KSNC)
02:36PM 40.0488 -73.0299 226° Southwest 369 425 34,000  Level FlightAware ADS-B (KSNC)
02:37PM 39.9882 -73.1116 226° Southwest 369 425 34,000  Level FlightAware ADS-B (KWWD)
02:38PM 39.9419 -73.1739 226° Southwest 369 425 34,000  Level FlightAware ADS-B (KWWD)
02:38PM 39.8890 -73.2323 220° Southwest 372 428 34,000  Level FlightAware ADS-B (KWWD)
02:39PM 39.8368 -73.2800 215° Southwest 372 428 34,000  Level FlightAware ADS-B (KWWD)
02:40PM 39.7913 -73.3217 215° Southwest 371 427 34,000  Level FlightAware ADS-B (KSNC)
02:40PM 39.7480 -73.3613 215° Southwest 370 426 34,000  Level FlightAware ADS-B (KWWD)
02:41PM 39.7092 -73.3967 215° Southwest 370 426 34,000  Level FlightAware ADS-B (KSNC)
02:41PM 39.6622 -73.4396 215° Southwest 372 428 34,000  Level FlightAware ADS-B (KWWD)
02:42PM 39.6199 -73.4781 215° Southwest 372 428 34,000  Level FlightAware ADS-B (KSNC)
02:42PM 39.5527 -73.5391 215° Southwest 371 427 34,000  Level FlightAware ADS-B (KWWD)
02:43PM 39.5105 -73.5773 215° Southwest 371 427 34,000  Level FlightAware ADS-B (KSNC)
02:43PM 39.4700 -73.6140 215° Southwest 373 429 34,000  Level FlightAware ADS-B (KSNC)
02:44PM 39.4090 -73.6691 215° Southwest 373 429 34,000  Level FlightAware ADS-B (KWWD)
02:45PM 39.3529 -73.7196 215° Southwest 373 429 34,000  Level FlightAware ADS-B (KWWD)
02:45PM 39.2951 -73.7717 215° Southwest 373 429 34,000  Level FlightAware ADS-B (KWWD)
02:46PM 39.2452 -73.8165 215° Southwest 374 430 34,000  Level FlightAware ADS-B (KWWD)
02:47PM 39.1897 -73.8663 215° Southwest 374 430 34,000  Level FlightAware ADS-B (KWWD)
02:47PM 39.1268 -73.9226 215° Southwest 375 432 34,000  Level FlightAware ADS-B (KWWD)
02:48PM 39.0676 -73.9757 215° Southwest 375 432 34,000  Level FlightAware ADS-B (KWWD)
02:49PM 39.0104 -74.0267 215° Southwest 375 432 34,000  Level FlightAware ADS-B (KWWD)
02:49PM 38.9557 -74.0754 215° Southwest 376 433 34,000  Level FlightAware ADS-B (KWWD)
02:50PM 38.8956 -74.1287 215° Southwest 376 433 34,000  Level FlightAware ADS-B (KWWD)
02:51PM 38.8397 -74.1781 215° Southwest 376 433 34,000  Level FlightAware ADS-B (KWWD)
02:51PM 38.7821 -74.2291 215° Southwest 376 433 34,000  Level FlightAware ADS-B (KWWD)
02:52PM 38.7242 -74.2802 215° Southwest 375 432 34,000  Level FlightAware ADS-B (KWWD)
02:53PM 38.6694 -74.3285 215° Southwest 375 432 34,000  Level FlightAware ADS-B (KWWD)
02:53PM 38.6103 -74.3804 214° Southwest 376 433 34,000  Level FlightAware ADS-B (KWWD)
02:54PM 38.5534 -74.4304 214° Southwest 377 434 34,000  Level FlightAware ADS-B (KWWD)
02:55PM 38.4952 -74.4815 214° Southwest 371 427 34,000  Level FlightAware ADS-B (KWWD)
02:55PM 38.4401 -74.5295 214° Southwest 370 426 34,000  Level FlightAware ADS-B (KWWD)
02:56PM 38.3801 -74.5820 214° Southwest 370 426 34,000  Level FlightAware ADS-B (KWWD)
02:57PM 38.3227 -74.6321 214° Southwest 371 427 34,000  Level FlightAware ADS-B (KWWD)
02:57PM 38.2652 -74.6820 214° Southwest 370 426 34,000  Level FlightAware ADS-B (KWWD)
02:58PM 38.2415 -74.7025 214° Southwest 377 434 34,000  Level FlightAware ADS-B (KSBY)
02:59PM 38.1547 -74.7776 214° Southwest 372 428 34,000  Level FlightAware ADS-B (KWWD)
02:59PM 38.0932 -74.8309 214° Southwest 374 430 34,000  Level FlightAware ADS-B (KWWD)
03:00PM 38.0359 -74.8802 214° Southwest 376 433 34,000  Level FlightAware ADS-B (KWWD)
03:01PM 37.9895 -74.9202 214° Southwest 376 433 34,000  Level FlightAware ADS-B (KWWD)
03:01PM 37.9208 -74.9792 214° Southwest 376 433 34,000  Level FlightAware ADS-B (KWWD)
03:02PM 37.8572 -75.0338 214° Southwest 374 430 34,000  Level FlightAware ADS-B (KWWD)
03:03PM 37.7990 -75.0835 214° Southwest 375 432 34,000  Level FlightAware ADS-B (KWWD)
03:03PM 37.7453 -75.1293 214° Southwest 377 434 34,000  Level FlightAware ADS-B (KWWD)
03:04PM 37.6827 -75.1827 214° Southwest 385 443 34,000  Level FlightAware ADS-B (KWWD)
03:05PM 37.6192 -75.2366 214° Southwest 385 443 34,000  Level FlightAware ADS-B (KWWD)
03:05PM 37.5611 -75.2860 214° Southwest 377 434 34,000  Level FlightAware ADS-B (KWWD)
03:06PM 37.5083 -75.3307 214° Southwest 377 434 34,000  Level FlightAware ADS-B (KWWD)
03:07PM 37.4450 -75.3841 214° Southwest 377 434 34,000  Level FlightAware ADS-B (KWWD)
03:07PM 37.3920 -75.4289 214° Southwest 384 442 34,000  Level FlightAware ADS-B (KWWD)
03:08PM 37.3315 -75.4799 214° Southwest 385 443 34,000  Level FlightAware ADS-B (KWWD)
03:09PM 37.2829 -75.5208 214° Southwest 385 443 34,000  Level FlightAware ADS-B (KWWD)
03:09PM 37.2098 -75.5821 214° Southwest 385 443 34,000  Level FlightAware ADS-B (KWWD)
03:11PM 37.0405 -75.7236 214° Southwest 376 433 34,000  Level FlightAware ADS-B (KWWD)
03:12PM 36.9409 -75.8066 214° Southwest 376 433 34,000  Level FlightAware ADS-B (KWWD)
03:13PM 36.8799 -75.8572 214° Southwest 384 442 34,000  Level FlightAware ADS-B (KWWD)
03:14PM 36.7979 -75.9252 214° Southwest 383 441 34,000  Level FlightAware ADS-B (KWWD)
03:15PM 36.7038 -76.0030 214° Southwest 385 443 34,000  Level FlightAware ADS-B (KWWD)
03:16PM 36.6491 -76.0480 213° Southwest 387 445 34,000  Level FlightAware ADS-B (KWWD)
03:16PM 36.5875 -76.0986 213° Southwest 387 445 34,000  Level FlightAware ADS-B (KWWD)
03:17PM 36.5187 -76.1551 213° Southwest 386 444 34,000  Level FlightAware ADS-B (KWWD)
03:18PM 36.4693 -76.1956 213° Southwest 388 447 34,000  Level FlightAware ADS-B (KWWD)
03:19PM 36.3564 -76.2883 213° Southwest 394 453 34,000  Level Washington Center
03:20PM 36.2683 -76.3572 212° Southwest 394 453 34,000  Level Washington Center
03:21PM 36.1781 -76.4333 214° Southwest 394 453 34,000  Level Washington Center
03:26PM 35.6558 -76.7687 214° Southwest 400 460 34,000  Level FlightAware ADS-B
03:27PM 35.5846 -76.8012 200° South 402 463 34,000  Level FlightAware ADS-B
03:28PM 35.5050 -76.8372 200° South 402 463 34,000  Level FlightAware ADS-B
03:29PM 35.4386 -76.8672 200° South 403 464 34,000  Level FlightAware ADS-B
03:29PM 35.3684 -76.8989 200° South 404 465 34,000  Level FlightAware ADS-B
03:30PM 35.2969 -76.9311 200° South 405 466 34,000  Level FlightAware ADS-B
03:31PM 35.2268 -76.9626 200° South 405 466 34,000  Level FlightAware ADS-B
03:31PM 35.1542 -76.9951 200° South 406 467 34,000  Level FlightAware ADS-B
03:32PM 35.0868 -77.0253 200° South 407 468 34,000  Level FlightAware ADS-B
03:33PM 35.0133 -77.0580 200° South 406 467 34,000  Level FlightAware ADS-B
03:33PM 34.9449 -77.0886 200° South 406 467 34,000  Level FlightAware ADS-B
03:34PM 34.8745 -77.1198 200° South 406 467 34,000  Level FlightAware ADS-B
03:34PM 34.8121 -77.1476 200° South 407 468 34,000  Level FlightAware ADS-B
03:35PM 34.7042 -77.1954 200° South 410 472 34,000  Level FlightAware ADS-B
03:37PM 34.5533 -77.2620 200° South 412 474 34,000  Level FlightAware ADS-B
03:38PM 34.4837 -77.2927 200° South 412 474 34,000  Level FlightAware ADS-B
03:38PM 34.4250 -77.3185 200° South 412 474 34,000  Level FlightAware ADS-B
03:39PM 34.3431 -77.3544 200° South 413 475 34,000  Level FlightAware ADS-B
03:40PM 34.2144 -77.4103 200° South 409 471 34,000  Level Washington Center
03:42PM 34.0378 -77.4875 200° South 417 480 34,000  Level Jacksonville Center
03:43PM 33.9269 -77.5342 199° South 422 486 34,000  Level Jacksonville Center
03:44PM 33.8183 -77.5808 200° South 422 486 34,000  Level Jacksonville Center
03:45PM 33.7097 -77.6275 200° South 422 486 34,000  Level Jacksonville Center
03:46PM 33.5994 -77.6789 201° Southwest 422 486 34,000  Level Jacksonville Center
03:47PM 33.4864 -77.7253 199° South 422 486 34,000  Level Jacksonville Center
03:48PM 33.3797 -77.7714 200° South 422 486 34,000  Level Jacksonville Center
03:49PM 33.2689 -77.8175 199° South 422 486 34,000  Level Jacksonville Center
03:50PM 33.1583 -77.8658 200° South 422 486 34,000  Level Jacksonville Center
03:51PM 33.0494 -77.9092 198° South 422 486 34,000  Level Jacksonville Center
03:52PM 32.9364 -77.9550 199° South 422 486 34,000  Level Jacksonville Center
03:53PM 32.8258 -78.0056 201° Southwest 422 486 34,000  Level Jacksonville Center
03:54PM 32.7147 -78.0511 199° South 422 486 34,000  Level Jacksonville Center
03:55PM 32.6017 -78.0967 199° South 422 486 34,000  Level Jacksonville Center
03:56PM 32.4928 -78.1442 200° South 422 486 34,000  Level Jacksonville Center
03:57PM 32.3797 -78.1919 200° South 422 486 34,000  Level Jacksonville Center
03:58PM 32.2689 -78.2419 201° Southwest 422 486 34,000  Level Jacksonville Center
03:59PM 32.1558 -78.2894 200° South 428 493 34,000  Level Jacksonville Center
04:00PM 32.0408 -78.3392 200° South 428 493 34,000  Level Jacksonville Center
04:01PM 31.9278 -78.3864 200° South 428 493 34,000  Level Jacksonville Center
04:02PM 31.8192 -78.4456 205° Southwest 434 499 34,000  Level Jacksonville Center
04:03PM 31.7192 -78.5136 210° Southwest 428 493 34,000  Level Jacksonville Center
04:04PM 31.6106 -78.5678 203° Southwest 428 493 34,000  Level Jacksonville Center
04:05PM 31.4931 -78.6144 199° South 428 493 34,000  Level Jacksonville Center
04:06PM 31.3775 -78.6564 197° South 433 498 34,000  Level Jacksonville Center
04:07PM 31.2642 -78.6978 197° South 438 504 34,000  Level Jacksonville Center
04:08PM 31.1467 -78.7394 197° South 438 504 34,000  Level Jacksonville Center
04:09PM 31.0311 -78.7833 198° South 438 504 34,000  Level Jacksonville Center
04:10PM 30.9133 -78.8225 196° South 438 504 34,000  Level Jacksonville Center
04:11PM 30.7978 -78.8636 197° South 438 504 34,000  Level Jacksonville Center
04:12PM 30.6114 -78.9300 197° South 435 501 34,000  Level Miami Center
04:13PM 30.4961 -78.9711 197° South 442 509 34,000  Level Miami Center
04:14PM 30.3892 -79.0100 197° South 442 509 34,000  Level Miami Center
04:15PM 30.2758 -79.0606 201° Southwest 442 509 34,000  Level Miami Center
04:16PM 30.1561 -79.1108 200° South 452 520 34,000  Level Miami Center
04:17PM 30.0428 -79.1611 201° Southwest 452 520 34,000  Level Miami Center
04:18PM 29.9147 -79.2231 203° Southwest 451 519 34,000  Level Miami Center
04:19PM 29.8011 -79.2756 202° Southwest 451 519 34,000  Level Miami Center
04:20PM 29.6836 -79.3206 198° South 451 519 34,000  Level Miami Center
04:21PM 29.5658 -79.3728 201° Southwest 451 519 34,000  Level Miami Center
04:27PM 28.8826 -79.6270 201° Southwest 441 507 34,000  Level FlightAware ADS-B (KMCO)
04:28PM 28.8099 -79.6536 198° South 442 509 34,000  Level FlightAware ADS-B (KMCO)
04:29PM 28.6853 -79.6991 198° South 442 509 34,000  Level FlightAware ADS-B (KMCO)
04:29PM 28.6167 -79.7241 198° South 442 509 34,000  Level FlightAware ADS-B (KMCO)
04:30PM 28.5264 -79.7570 198° South 442 509 34,000  Level FlightAware ADS-B (KSFB)
04:31PM 28.4680 -79.7782 198° South 443 510 34,000  Level FlightAware ADS-B (KMCO)
04:31PM 28.3982 -79.8036 198° South 445 512 34,000  Level FlightAware ADS-B (KMCO)
04:32PM 28.3305 -79.8280 198° South 446 513 34,000  Level FlightAware ADS-B (KSFB)
04:32PM 28.2767 -79.8476 198° South 447 514 34,000  Level FlightAware ADS-B (KMCO)
04:33PM 28.1991 -79.8758 198° South 445 512 34,000  Level FlightAware ADS-B (KMCO)
04:34PM 28.1093 -79.9081 198° South 446 513 34,000  Level FlightAware ADS-B (KMCO)
04:34PM 28.0278 -79.9375 198° South 447 514 34,000  Level FlightAware ADS-B (KMCO)
04:35PM 27.9579 -79.9625 198° South 446 513 34,000  Level FlightAware ADS-B (KMCO)
04:36PM 27.8671 -79.9951 198° South 443 510 34,000  Level FlightAware ADS-B (KMCO)
04:36PM 27.7894 -80.0231 198° South 443 510 34,000  Level FlightAware ADS-B (KMCO)
04:37PM 27.7084 -80.0520 198° South 441 507 34,000  Level FlightAware ADS-B (KMCO)
04:38PM 27.6217 -80.0830 198° South 441 507 34,000  Level FlightAware ADS-B (KMCO)
04:38PM 27.5460 -80.1101 198° South 440 506 34,000  Level FlightAware ADS-B (KMCO)
04:39PM 27.4633 -80.1396 198° South 442 509 34,000  Level FlightAware ADS-B (KMCO)
04:40PM 27.3897 -80.1658 198° South 445 512 34,000  Level FlightAware ADS-B (KMCO)
04:41PM 27.3218 -80.1899 198° South 445 512 34,000  Level FlightAware ADS-B (KMCO)
04:41PM 27.2390 -80.2193 198° South 443 510 34,000  Level FlightAware ADS-B (KMCO)
04:42PM 27.1647 -80.2456 197° South 445 512 34,000  Level FlightAware ADS-B (KMCO)
04:42PM 27.1078 -80.2658 197° South 446 513 34,000  Level Miami Center
04:43PM 26.9919 -80.3092 198° South 446 513 34,000  Level Miami Center
04:49PM 26.3093 -80.5463 198° South 452 520 34,000  Level FlightAware ADS-B (KMCO)
04:50PM 26.1514 -80.6039 198° South 445 512 34,000  Level Miami Center
04:51PM 26.0314 -80.6442 197° South 445 512 34,000  Level Miami Center
04:52PM 25.9239 -80.6822 198° South 450 518 34,000  Level Miami Center
04:53PM 25.8100 -80.7269 199° South 445 512 34,000  Level Miami Center
04:54PM 25.7136 -80.8161 220° Southwest 440 506 34,000  Level Miami Center
04:55PM 25.6211 -80.9075 222° Southwest 445 512 34,000  Level Miami Center
04:56PM 25.5353 -80.9944 222° Southwest 435 501 34,000  Level Miami Center
04:57PM 25.4450 -81.0833 222° Southwest 435 501 34,000  Level Miami Center
04:58PM 25.3589 -81.1725 223° Southwest 430 495 34,000  Level Miami Center
04:59PM 25.2706 -81.2611 222° Southwest 430 495 34,000  Level Miami Center
05:00PM 25.1825 -81.3475 222° Southwest 430 495 34,000  Level Miami Center
05:01PM 25.0919 -81.4358 221° Southwest 430 495 34,000  Level Miami Center
05:02PM 25.0056 -81.5267 224° Southwest 435 501 34,000  Level Miami Center
05:03PM 24.9172 -81.6172 223° Southwest 435 501 34,000  Level Miami Center
05:04PM 24.8308 -81.7031 222° Southwest 429 494 34,000  Level Miami Center
05:05PM 24.7442 -81.7933 223° Southwest 429 494 34,000  Level Miami Center
05:06PM 24.6517 -81.8764 219° Southwest 434 499 34,000 -120 Level Miami Center
05:07PM 24.5608 -81.9664 222° Southwest 434 499 33,800 -840 Descending Miami Center
05:08PM 24.4725 -82.0494 221° Southwest 427 491 32,400 -1,680 Descending Miami Center
05:09PM 24.3881 -82.1325 222° Southwest 421 484 30,500 -1,860 Descending Miami Center
05:10PM 24.3078 -82.2158 223° Southwest 415 478 28,700 -1,800 Descending Miami Center
05:11PM 24.2275 -82.2989 223° Southwest 409 471 27,000 -1,800 Descending Miami Center
05:12PM 24.1375 -82.3656 214° Southwest 399 459 25,200 -1,920 Descending Miami Center
05:13PM 24.0525 -82.4594 225° Southwest 399 459 23,200 -1,920 Descending Miami Center
05:14PM 23.9608 -82.5122 208° Southwest 387 445 21,400 -1,800 Descending Miami Center
05:16PM 23.8300 -82.4927 172° South  Level FlightAware Approximate
05:23PM 23.0753 -82.4051 170° South  Level FlightAware Approximate
05:24PM 22.9891 -82.4091 180° South  Level Estimated
05:25PM 22.9891 -82.4091 180° South  Level Estimated
05:26PM 22.9891 -82.4091 180° South  Level Estimated
05:27PM 22.9891 -82.4091 180° South  Level Estimated
05:28PM 22.9891 -82.4091 180° South  Level Estimated
05:29PM 22.9891 -82.4091 180° South  Level Estimated
05:30PM 22.9891 -82.4091 180° South  Level Estimated
05:31PM 22.9891 -82.4091 180° South  Level Estimated
05:32PM 22.9891 -82.4091 180° South  Level Estimated
05:33PM 22.9891 -82.4091 180° South  Level Estimated
05:34PM 22.9891 -82.4091 180° South  Level Estimated
05:35PM 22.9891 -82.4091 180° South  Level Estimated
05:36PM 22.9891 -82.4091 180° South  Level Estimated
05:37PM 22.9891 -82.4091 180° South  Level Estimated
05:38PM 22.9891 -82.4091 180° South  Level Estimated
05:39PM 22.9891 -82.4091 180° South  Level Estimated
05:40PM 22.9891 -82.4091 180° South  Level Estimated
05:41PM 22.9891 -82.4091 180° South  Level Estimated
05:42PM 22.9891 -82.4091 180° South  Level Estimated
05:43PM 22.9891 -82.4091 180° South  Level Estimated
05:44PM 22.9891 -82.4091 180° South  Level Estimated
05:45PM 22.9891 -82.4091 180° South  Level Estimated